KBLM/BLM METAR and TAF weather

Enter ICAO airport designator
Station Type Date Time Source
KBLM METAR 2021/09/28 16:56 UTC NOAA

KBLM 281656Z AUTO 28012KT 10SM OVC085 21/16 A2988 RMK AO2 LTG DSNT SW RAE09 SLP116 T02110161 PNO $


Station Type Date Time Source
KBLM Decoded METAR 2021/09/28 16:56 UTC NOAA

Belmar-Farmingdale, NJ, United States (KBLM) 40-11N 074-08W
Sep 28, 2021 - 12:56 PM EDT / 2021.09.28 1656 UTC
Wind: from the W (280 degrees) at 14 MPH (12 KT):0
Visibility: 10 mile(s):0
Sky conditions: overcast
Weather: Lightning observed
Temperature: 70.0 F (21.1 C)
Dew Point: 61.0 F (16.1 C)
Relative Humidity: 73%
Pressure (altimeter): 29.88 in. Hg (1011 hPa)
ob: KBLM 281656Z AUTO 28012KT 10SM OVC085 21/16 A2988 RMK AO2 LTG DSNT SW RAE09 SLP116 T02110161 PNO
cycle: 17

Station Type Date Time Source
KBLM TAF UTC NOAA

Error!

Example: see airport list